sensor_id;sensor_type;location;lat;lon;timestamp;P1;durP1;ratioP1;P2;durP2;ratioP2
49440;SDS011;35317;51.978;6.296;2022-09-14T00:03:39;12.57;;;2.70;;
49440;SDS011;35317;51.978;6.296;2022-09-14T00:08:40;11.85;;;2.67;;
49440;SDS011;35317;51.978;6.296;2022-09-14T00:13:43;10.10;;;2.20;;
49440;SDS011;35317;51.978;6.296;2022-09-14T00:18:48;12.73;;;2.35;;
49440;SDS011;35317;51.978;6.296;2022-09-14T00:23:51;12.80;;;2.53;;
49440;SDS011;35317;51.978;6.296;2022-09-14T00:28:53;8.57;;;2.40;;
49440;SDS011;35317;51.978;6.296;2022-09-14T00:33:57;11.20;;;2.60;;
49440;SDS011;35317;51.978;6.296;2022-09-14T00:38:57;8.52;;;2.60;;
49440;SDS011;35317;51.978;6.296;2022-09-14T00:44:03;8.25;;;2.47;;
49440;SDS011;35317;51.978;6.296;2022-09-14T00:49:10;8.40;;;2.40;;
49440;SDS011;35317;51.978;6.296;2022-09-14T00:54:24;11.82;;;2.92;;
49440;SDS011;35317;51.978;6.296;2022-09-14T00:59:26;12.43;;;3.05;;
49440;SDS011;35317;51.978;6.296;2022-09-14T01:04:30;14.27;;;3.30;;
49440;SDS011;35317;51.978;6.296;2022-09-14T01:09:35;10.52;;;3.17;;
49440;SDS011;35317;51.978;6.296;2022-09-14T01:14:47;9.05;;;3.25;;
49440;SDS011;35317;51.978;6.296;2022-09-14T01:20:08;17.88;;;3.83;;
49440;SDS011;35317;51.978;6.296;2022-09-14T01:31:02;13.63;;;3.95;;
49440;SDS011;35317;51.978;6.296;2022-09-14T01:36:11;8.93;;;3.28;;
49440;SDS011;35317;51.978;6.296;2022-09-14T01:41:14;8.32;;;3.97;;
49440;SDS011;35317;51.978;6.296;2022-09-14T01:46:21;9.10;;;3.78;;
49440;SDS011;35317;51.978;6.296;2022-09-14T01:51:30;14.73;;;3.95;;
49440;SDS011;35317;51.978;6.296;2022-09-14T01:56:44;11.48;;;3.75;;
49440;SDS011;35317;51.978;6.296;2022-09-14T02:01:56;9.05;;;4.03;;
49440;SDS011;35317;51.978;6.296;2022-09-14T02:07:16;10.88;;;4.43;;
49440;SDS011;35317;51.978;6.296;2022-09-14T02:12:18;10.50;;;4.18;;
49440;SDS011;35317;51.978;6.296;2022-09-14T02:17:19;12.40;;;4.05;;
49440;SDS011;35317;51.978;6.296;2022-09-14T02:22:21;10.32;;;3.55;;
49440;SDS011;35317;51.978;6.296;2022-09-14T02:27:22;10.43;;;3.80;;
49440;SDS011;35317;51.978;6.296;2022-09-14T02:32:39;12.38;;;4.00;;
49440;SDS011;35317;51.978;6.296;2022-09-14T02:38:04;11.73;;;3.83;;
49440;SDS011;35317;51.978;6.296;2022-09-14T02:43:46;12.13;;;3.63;;
49440;SDS011;35317;51.978;6.296;2022-09-14T02:49:06;10.45;;;4.40;;
49440;SDS011;35317;51.978;6.296;2022-09-14T02:59:23;12.43;;;4.82;;
49440;SDS011;35317;51.978;6.296;2022-09-14T03:04:24;12.20;;;3.75;;
49440;SDS011;35317;51.978;6.296;2022-09-14T03:09:25;12.82;;;4.88;;
49440;SDS011;35317;51.978;6.296;2022-09-14T03:14:26;9.77;;;4.07;;
49440;SDS011;35317;51.978;6.296;2022-09-14T03:19:27;12.80;;;4.18;;
49440;SDS011;35317;51.978;6.296;2022-09-14T03:24:28;8.52;;;4.32;;
49440;SDS011;35317;51.978;6.296;2022-09-14T03:29:29;12.27;;;4.20;;
49440;SDS011;35317;51.978;6.296;2022-09-14T03:34:29;8.52;;;3.35;;
49440;SDS011;35317;51.978;6.296;2022-09-14T03:39:30;10.27;;;3.75;;
49440;SDS011;35317;51.978;6.296;2022-09-14T03:44:31;7.95;;;3.90;;
49440;SDS011;35317;51.978;6.296;2022-09-14T03:49:32;8.40;;;4.13;;
49440;SDS011;35317;51.978;6.296;2022-09-14T03:54:33;9.65;;;4.20;;
49440;SDS011;35317;51.978;6.296;2022-09-14T03:59:33;13.07;;;5.00;;
49440;SDS011;35317;51.978;6.296;2022-09-14T04:04:34;10.43;;;4.70;;
49440;SDS011;35317;51.978;6.296;2022-09-14T04:09:35;9.95;;;4.45;;
49440;SDS011;35317;51.978;6.296;2022-09-14T04:14:37;8.95;;;4.57;;
49440;SDS011;35317;51.978;6.296;2022-09-14T04:19:38;17.25;;;4.88;;
49440;SDS011;35317;51.978;6.296;2022-09-14T04:24:40;11.85;;;4.57;;
49440;SDS011;35317;51.978;6.296;2022-09-14T04:29:41;10.90;;;3.90;;
49440;SDS011;35317;51.978;6.296;2022-09-14T04:34:41;9.60;;;4.38;;
49440;SDS011;35317;51.978;6.296;2022-09-14T04:39:42;11.15;;;4.60;;
49440;SDS011;35317;51.978;6.296;2022-09-14T04:44:43;12.07;;;4.57;;
49440;SDS011;35317;51.978;6.296;2022-09-14T04:49:44;12.68;;;5.75;;
49440;SDS011;35317;51.978;6.296;2022-09-14T04:54:44;10.90;;;4.18;;
49440;SDS011;35317;51.978;6.296;2022-09-14T04:59:45;17.55;;;4.13;;
49440;SDS011;35317;51.978;6.296;2022-09-14T05:04:46;10.38;;;4.93;;
49440;SDS011;35317;51.978;6.296;2022-09-14T05:09:47;12.20;;;4.90;;
49440;SDS011;35317;51.978;6.296;2022-09-14T05:14:47;11.52;;;5.07;;
49440;SDS011;35317;51.978;6.296;2022-09-14T05:19:48;11.90;;;4.78;;
49440;SDS011;35317;51.978;6.296;2022-09-14T05:24:56;12.88;;;5.22;;
49440;SDS011;35317;51.978;6.296;2022-09-14T05:29:56;15.00;;;5.80;;
49440;SDS011;35317;51.978;6.296;2022-09-14T05:34:57;13.88;;;6.05;;
49440;SDS011;35317;51.978;6.296;2022-09-14T05:39:58;11.70;;;5.85;;
49440;SDS011;35317;51.978;6.296;2022-09-14T05:44:58;15.60;;;5.90;;
49440;SDS011;35317;51.978;6.296;2022-09-14T05:50:04;12.32;;;5.82;;
49440;SDS011;35317;51.978;6.296;2022-09-14T05:55:07;13.38;;;6.57;;
49440;SDS011;35317;51.978;6.296;2022-09-14T06:00:08;13.57;;;6.20;;
49440;SDS011;35317;51.978;6.296;2022-09-14T06:05:09;16.20;;;6.60;;
49440;SDS011;35317;51.978;6.296;2022-09-14T06:10:10;16.52;;;7.75;;
49440;SDS011;35317;51.978;6.296;2022-09-14T06:15:11;15.48;;;6.93;;
49440;SDS011;35317;51.978;6.296;2022-09-14T06:20:12;12.65;;;7.18;;
49440;SDS011;35317;51.978;6.296;2022-09-14T06:25:13;27.08;;;7.85;;
49440;SDS011;35317;51.978;6.296;2022-09-14T06:30:14;17.05;;;8.48;;
49440;SDS011;35317;51.978;6.296;2022-09-14T06:35:15;20.52;;;9.20;;
49440;SDS011;35317;51.978;6.296;2022-09-14T06:40:16;14.13;;;8.20;;
49440;SDS011;35317;51.978;6.296;2022-09-14T06:45:17;16.90;;;8.48;;
49440;SDS011;35317;51.978;6.296;2022-09-14T06:50:17;14.20;;;8.10;;
49440;SDS011;35317;51.978;6.296;2022-09-14T06:55:18;12.93;;;7.28;;
49440;SDS011;35317;51.978;6.296;2022-09-14T07:00:19;14.38;;;7.78;;
49440;SDS011;35317;51.978;6.296;2022-09-14T07:05:20;11.98;;;7.22;;
49440;SDS011;35317;51.978;6.296;2022-09-14T07:10:21;18.95;;;8.07;;
49440;SDS011;35317;51.978;6.296;2022-09-14T07:15:26;14.70;;;8.57;;
49440;SDS011;35317;51.978;6.296;2022-09-14T07:20:27;13.82;;;8.20;;
49440;SDS011;35317;51.978;6.296;2022-09-14T07:25:28;16.08;;;9.00;;
49440;SDS011;35317;51.978;6.296;2022-09-14T07:30:29;11.13;;;7.60;;
49440;SDS011;35317;51.978;6.296;2022-09-14T07:35:30;21.05;;;9.10;;
49440;SDS011;35317;51.978;6.296;2022-09-14T07:40:31;23.85;;;8.00;;
49440;SDS011;35317;51.978;6.296;2022-09-14T07:45:33;15.27;;;8.70;;
49440;SDS011;35317;51.978;6.296;2022-09-14T07:50:35;14.88;;;8.60;;
49440;SDS011;35317;51.978;6.296;2022-09-14T07:55:39;15.27;;;7.82;;
49440;SDS011;35317;51.978;6.296;2022-09-14T08:00:40;14.93;;;8.23;;
49440;SDS011;35317;51.978;6.296;2022-09-14T08:05:41;12.85;;;7.95;;
49440;SDS011;35317;51.978;6.296;2022-09-14T08:10:42;13.75;;;6.80;;
49440;SDS011;35317;51.978;6.296;2022-09-14T08:15:42;12.00;;;7.22;;
49440;SDS011;35317;51.978;6.296;2022-09-14T08:20:43;16.88;;;8.30;;
49440;SDS011;35317;51.978;6.296;2022-09-14T08:25:44;17.15;;;7.85;;
49440;SDS011;35317;51.978;6.296;2022-09-14T08:30:45;12.27;;;7.07;;
49440;SDS011;35317;51.978;6.296;2022-09-14T08:35:46;10.20;;;6.10;;
49440;SDS011;35317;51.978;6.296;2022-09-14T08:40:46;9.23;;;5.90;;
49440;SDS011;35317;51.978;6.296;2022-09-14T08:45:51;13.18;;;5.82;;
49440;SDS011;35317;51.978;6.296;2022-09-14T08:51:03;10.60;;;6.32;;
49440;SDS011;35317;51.978;6.296;2022-09-14T08:56:08;11.02;;;5.97;;
49440;SDS011;35317;51.978;6.296;2022-09-14T09:01:39;13.35;;;6.68;;
49440;SDS011;35317;51.978;6.296;2022-09-14T09:06:57;14.05;;;7.55;;
49440;SDS011;35317;51.978;6.296;2022-09-14T09:12:35;14.57;;;7.65;;
49440;SDS011;35317;51.978;6.296;2022-09-14T09:17:40;15.73;;;8.27;;
49440;SDS011;35317;51.978;6.296;2022-09-14T09:22:47;9.63;;;7.40;;
49440;SDS011;35317;51.978;6.296;2022-09-14T09:28:18;13.10;;;7.80;;
49440;SDS011;35317;51.978;6.296;2022-09-14T09:33:21;14.30;;;7.72;;
49440;SDS011;35317;51.978;6.296;2022-09-14T09:38:25;13.00;;;7.50;;
49440;SDS011;35317;51.978;6.296;2022-09-14T09:43:28;12.77;;;7.87;;
49440;SDS011;35317;51.978;6.296;2022-09-14T09:48:30;11.60;;;8.18;;
49440;SDS011;35317;51.978;6.296;2022-09-14T09:53:54;12.48;;;7.80;;
49440;SDS011;35317;51.978;6.296;2022-09-14T09:59:22;16.02;;;7.95;;
49440;SDS011;35317;51.978;6.296;2022-09-14T10:04:31;11.50;;;7.57;;
49440;SDS011;35317;51.978;6.296;2022-09-14T10:09:34;12.87;;;8.47;;
49440;SDS011;35317;51.978;6.296;2022-09-14T10:14:36;13.40;;;8.43;;
49440;SDS011;35317;51.978;6.296;2022-09-14T10:19:39;12.43;;;8.73;;
49440;SDS011;35317;51.978;6.296;2022-09-14T10:24:40;16.00;;;8.07;;
49440;SDS011;35317;51.978;6.296;2022-09-14T10:29:51;15.18;;;9.50;;
49440;SDS011;35317;51.978;6.296;2022-09-14T10:34:54;17.75;;;9.18;;
49440;SDS011;35317;51.978;6.296;2022-09-14T10:39:59;15.25;;;8.77;;
49440;SDS011;35317;51.978;6.296;2022-09-14T10:45:28;18.13;;;9.80;;
49440;SDS011;35317;51.978;6.296;2022-09-14T11:01:26;16.73;;;7.80;;
49440;SDS011;35317;51.978;6.296;2022-09-14T11:17:32;15.00;;;7.35;;
49440;SDS011;35317;51.978;6.296;2022-09-14T11:22:56;12.75;;;6.32;;
49440;SDS011;35317;51.978;6.296;2022-09-14T11:28:17;11.70;;;7.05;;
49440;SDS011;35317;51.978;6.296;2022-09-14T11:33:24;15.82;;;8.10;;
49440;SDS011;35317;51.978;6.296;2022-09-14T11:39:02;10.52;;;7.07;;
49440;SDS011;35317;51.978;6.296;2022-09-14T11:44:14;11.97;;;7.40;;
49440;SDS011;35317;51.978;6.296;2022-09-14T11:54:33;14.27;;;7.80;;
49440;SDS011;35317;51.978;6.296;2022-09-14T12:20:37;16.05;;;7.35;;
49440;SDS011;35317;51.978;6.296;2022-09-14T12:26:09;12.50;;;8.15;;
49440;SDS011;35317;51.978;6.296;2022-09-14T12:46:51;17.20;;;8.88;;
49440;SDS011;35317;51.978;6.296;2022-09-14T12:51:53;9.00;;;7.80;;
49440;SDS011;35317;51.978;6.296;2022-09-14T13:07:55;11.80;;;8.00;;
49440;SDS011;35317;51.978;6.296;2022-09-14T13:12:56;12.05;;;8.02;;
49440;SDS011;35317;51.978;6.296;2022-09-14T13:18:27;15.15;;;7.65;;
49440;SDS011;35317;51.978;6.296;2022-09-14T13:23:29;12.60;;;7.68;;
49440;SDS011;35317;51.978;6.296;2022-09-14T13:28:36;15.93;;;7.50;;
49440;SDS011;35317;51.978;6.296;2022-09-14T13:33:38;12.38;;;7.00;;
49440;SDS011;35317;51.978;6.296;2022-09-14T13:38:50;11.55;;;7.28;;
49440;SDS011;35317;51.978;6.296;2022-09-14T13:43:52;15.95;;;7.45;;
49440;SDS011;35317;51.978;6.296;2022-09-14T13:48:55;13.37;;;7.30;;
49440;SDS011;35317;51.978;6.296;2022-09-14T13:53:56;11.00;;;6.75;;
49440;SDS011;35317;51.978;6.296;2022-09-14T13:59:19;15.43;;;6.97;;
49440;SDS011;35317;51.978;6.296;2022-09-14T14:04:24;14.27;;;6.63;;
49440;SDS011;35317;51.978;6.296;2022-09-14T14:09:41;9.95;;;6.15;;
49440;SDS011;35317;51.978;6.296;2022-09-14T14:14:58;15.63;;;6.70;;
49440;SDS011;35317;51.978;6.296;2022-09-14T14:25:31;8.63;;;5.68;;
49440;SDS011;35317;51.978;6.296;2022-09-14T14:30:37;13.05;;;5.78;;
49440;SDS011;35317;51.978;6.296;2022-09-14T14:35:40;16.05;;;6.78;;
49440;SDS011;35317;51.978;6.296;2022-09-14T14:40:41;11.90;;;6.40;;
49440;SDS011;35317;51.978;6.296;2022-09-14T14:45:45;14.32;;;5.68;;
49440;SDS011;35317;51.978;6.296;2022-09-14T14:50:47;16.45;;;5.88;;
49440;SDS011;35317;51.978;6.296;2022-09-14T14:55:48;14.10;;;5.60;;
49440;SDS011;35317;51.978;6.296;2022-09-14T15:00:49;8.85;;;5.00;;
49440;SDS011;35317;51.978;6.296;2022-09-14T15:05:50;13.68;;;6.30;;
49440;SDS011;35317;51.978;6.296;2022-09-14T15:10:54;13.73;;;4.68;;
49440;SDS011;35317;51.978;6.296;2022-09-14T15:15:56;11.82;;;5.30;;
49440;SDS011;35317;51.978;6.296;2022-09-14T15:20:57;10.90;;;5.50;;
49440;SDS011;35317;51.978;6.296;2022-09-14T15:25:58;12.07;;;5.60;;
49440;SDS011;35317;51.978;6.296;2022-09-14T15:30:59;14.43;;;5.50;;
49440;SDS011;35317;51.978;6.296;2022-09-14T15:36:00;9.60;;;5.13;;
49440;SDS011;35317;51.978;6.296;2022-09-14T15:41:02;10.13;;;4.85;;
49440;SDS011;35317;51.978;6.296;2022-09-14T15:46:03;13.05;;;4.75;;
49440;SDS011;35317;51.978;6.296;2022-09-14T15:51:08;12.10;;;4.60;;
49440;SDS011;35317;51.978;6.296;2022-09-14T15:56:10;11.18;;;4.32;;
49440;SDS011;35317;51.978;6.296;2022-09-14T16:01:15;13.43;;;4.80;;
49440;SDS011;35317;51.978;6.296;2022-09-14T16:06:17;9.95;;;4.30;;
49440;SDS011;35317;51.978;6.296;2022-09-14T16:11:18;10.63;;;4.28;;
49440;SDS011;35317;51.978;6.296;2022-09-14T16:16:19;10.80;;;5.35;;
49440;SDS011;35317;51.978;6.296;2022-09-14T16:21:21;13.70;;;5.60;;
49440;SDS011;35317;51.978;6.296;2022-09-14T16:26:27;8.80;;;4.50;;
49440;SDS011;35317;51.978;6.296;2022-09-14T16:31:34;16.02;;;6.18;;
49440;SDS011;35317;51.978;6.296;2022-09-14T16:36:37;14.27;;;8.00;;
49440;SDS011;35317;51.978;6.296;2022-09-14T16:41:39;15.53;;;7.80;;
49440;SDS011;35317;51.978;6.296;2022-09-14T16:46:41;15.73;;;8.20;;
49440;SDS011;35317;51.978;6.296;2022-09-14T16:51:42;16.52;;;7.50;;
49440;SDS011;35317;51.978;6.296;2022-09-14T16:56:43;15.23;;;8.20;;
49440;SDS011;35317;51.978;6.296;2022-09-14T17:01:45;17.23;;;8.43;;
49440;SDS011;35317;51.978;6.296;2022-09-14T17:06:46;14.32;;;8.70;;
49440;SDS011;35317;51.978;6.296;2022-09-14T17:11:49;13.00;;;8.27;;
49440;SDS011;35317;51.978;6.296;2022-09-14T17:16:50;15.68;;;9.18;;
49440;SDS011;35317;51.978;6.296;2022-09-14T17:21:51;14.23;;;9.00;;
49440;SDS011;35317;51.978;6.296;2022-09-14T17:26:52;13.98;;;9.27;;
49440;SDS011;35317;51.978;6.296;2022-09-14T17:31:53;21.40;;;8.95;;
49440;SDS011;35317;51.978;6.296;2022-09-14T17:36:54;19.42;;;10.23;;
49440;SDS011;35317;51.978;6.296;2022-09-14T17:41:55;20.33;;;9.95;;
49440;SDS011;35317;51.978;6.296;2022-09-14T17:46:56;16.65;;;10.48;;
49440;SDS011;35317;51.978;6.296;2022-09-14T17:51:57;19.38;;;10.07;;
49440;SDS011;35317;51.978;6.296;2022-09-14T17:56:58;22.88;;;10.77;;
49440;SDS011;35317;51.978;6.296;2022-09-14T18:01:58;15.10;;;9.80;;
49440;SDS011;35317;51.978;6.296;2022-09-14T18:07:01;22.30;;;11.85;;
49440;SDS011;35317;51.978;6.296;2022-09-14T18:17:04;21.88;;;11.50;;
49440;SDS011;35317;51.978;6.296;2022-09-14T18:22:05;21.00;;;12.45;;
49440;SDS011;35317;51.978;6.296;2022-09-14T18:27:07;17.35;;;11.32;;
49440;SDS011;35317;51.978;6.296;2022-09-14T18:32:08;15.50;;;10.00;;
49440;SDS011;35317;51.978;6.296;2022-09-14T18:37:09;22.77;;;12.05;;
49440;SDS011;35317;51.978;6.296;2022-09-14T18:42:09;20.67;;;11.25;;
49440;SDS011;35317;51.978;6.296;2022-09-14T18:47:10;18.00;;;10.55;;
49440;SDS011;35317;51.978;6.296;2022-09-14T18:52:12;19.25;;;11.45;;
49440;SDS011;35317;51.978;6.296;2022-09-14T18:57:13;18.10;;;12.35;;
49440;SDS011;35317;51.978;6.296;2022-09-14T19:02:16;23.48;;;12.13;;
49440;SDS011;35317;51.978;6.296;2022-09-14T19:07:17;20.80;;;13.25;;
49440;SDS011;35317;51.978;6.296;2022-09-14T19:12:18;23.65;;;13.52;;
49440;SDS011;35317;51.978;6.296;2022-09-14T19:17:18;24.38;;;13.57;;
49440;SDS011;35317;51.978;6.296;2022-09-14T19:22:19;26.63;;;14.75;;
49440;SDS011;35317;51.978;6.296;2022-09-14T19:27:20;26.85;;;15.07;;
49440;SDS011;35317;51.978;6.296;2022-09-14T19:32:21;23.50;;;14.45;;
49440;SDS011;35317;51.978;6.296;2022-09-14T19:37:21;24.20;;;16.25;;
49440;SDS011;35317;51.978;6.296;2022-09-14T19:42:23;26.95;;;14.27;;
49440;SDS011;35317;51.978;6.296;2022-09-14T19:47:24;26.30;;;15.70;;
49440;SDS011;35317;51.978;6.296;2022-09-14T19:52:25;31.00;;;17.60;;
49440;SDS011;35317;51.978;6.296;2022-09-14T19:57:26;33.30;;;18.15;;
49440;SDS011;35317;51.978;6.296;2022-09-14T20:02:26;27.98;;;17.88;;
49440;SDS011;35317;51.978;6.296;2022-09-14T20:07:27;30.15;;;18.35;;
49440;SDS011;35317;51.978;6.296;2022-09-14T20:12:28;32.70;;;18.90;;
49440;SDS011;35317;51.978;6.296;2022-09-14T20:17:29;27.83;;;17.77;;
49440;SDS011;35317;51.978;6.296;2022-09-14T20:22:30;30.73;;;18.10;;
49440;SDS011;35317;51.978;6.296;2022-09-14T20:27:30;33.88;;;19.45;;
49440;SDS011;35317;51.978;6.296;2022-09-14T20:32:31;36.17;;;20.17;;
49440;SDS011;35317;51.978;6.296;2022-09-14T20:37:32;30.38;;;18.48;;
49440;SDS011;35317;51.978;6.296;2022-09-14T20:42:32;27.40;;;17.75;;
49440;SDS011;35317;51.978;6.296;2022-09-14T20:47:33;28.08;;;17.65;;
49440;SDS011;35317;51.978;6.296;2022-09-14T20:52:34;29.02;;;17.85;;
49440;SDS011;35317;51.978;6.296;2022-09-14T20:57:35;34.05;;;19.08;;
49440;SDS011;35317;51.978;6.296;2022-09-14T21:02:36;25.85;;;17.55;;
49440;SDS011;35317;51.978;6.296;2022-09-14T21:07:37;27.35;;;17.88;;
49440;SDS011;35317;51.978;6.296;2022-09-14T21:12:38;26.10;;;15.85;;
49440;SDS011;35317;51.978;6.296;2022-09-14T21:17:39;25.40;;;15.88;;
49440;SDS011;35317;51.978;6.296;2022-09-14T21:22:40;23.23;;;14.90;;
49440;SDS011;35317;51.978;6.296;2022-09-14T21:27:44;24.73;;;15.43;;
49440;SDS011;35317;51.978;6.296;2022-09-14T21:32:47;22.08;;;15.23;;
49440;SDS011;35317;51.978;6.296;2022-09-14T21:37:49;23.35;;;14.05;;
49440;SDS011;35317;51.978;6.296;2022-09-14T21:42:50;24.00;;;13.90;;
49440;SDS011;35317;51.978;6.296;2022-09-14T21:47:52;30.33;;;16.27;;
49440;SDS011;35317;51.978;6.296;2022-09-14T21:52:52;25.92;;;15.77;;
49440;SDS011;35317;51.978;6.296;2022-09-14T21:57:53;23.17;;;13.90;;
49440;SDS011;35317;51.978;6.296;2022-09-14T22:02:55;25.90;;;14.57;;
49440;SDS011;35317;51.978;6.296;2022-09-14T22:07:56;30.42;;;16.63;;
49440;SDS011;35317;51.978;6.296;2022-09-14T22:12:56;25.65;;;14.85;;
49440;SDS011;35317;51.978;6.296;2022-09-14T22:17:57;25.90;;;15.30;;
49440;SDS011;35317;51.978;6.296;2022-09-14T22:22:58;31.67;;;17.20;;
49440;SDS011;35317;51.978;6.296;2022-09-14T22:27:59;25.77;;;15.02;;
49440;SDS011;35317;51.978;6.296;2022-09-14T22:32:59;24.10;;;14.73;;
49440;SDS011;35317;51.978;6.296;2022-09-14T22:38:00;26.27;;;14.45;;
49440;SDS011;35317;51.978;6.296;2022-09-14T22:43:01;22.25;;;15.18;;
49440;SDS011;35317;51.978;6.296;2022-09-14T22:48:02;24.67;;;15.48;;
49440;SDS011;35317;51.978;6.296;2022-09-14T22:53:03;26.83;;;15.77;;
49440;SDS011;35317;51.978;6.296;2022-09-14T22:58:03;29.35;;;17.52;;
49440;SDS011;35317;51.978;6.296;2022-09-14T23:03:05;26.58;;;16.63;;
49440;SDS011;35317;51.978;6.296;2022-09-14T23:08:06;23.75;;;15.10;;
49440;SDS011;35317;51.978;6.296;2022-09-14T23:13:07;29.25;;;17.58;;
49440;SDS011;35317;51.978;6.296;2022-09-14T23:18:08;42.45;;;20.23;;
49440;SDS011;35317;51.978;6.296;2022-09-14T23:23:09;46.80;;;23.25;;
49440;SDS011;35317;51.978;6.296;2022-09-14T23:28:11;47.75;;;23.10;;
49440;SDS011;35317;51.978;6.296;2022-09-14T23:33:12;57.47;;;25.90;;
49440;SDS011;35317;51.978;6.296;2022-09-14T23:38:13;59.85;;;28.00;;
49440;SDS011;35317;51.978;6.296;2022-09-14T23:43:15;54.38;;;26.08;;
49440;SDS011;35317;51.978;6.296;2022-09-14T23:48:16;58.33;;;27.08;;
49440;SDS011;35317;51.978;6.296;2022-09-14T23:53:17;50.97;;;25.77;;
49440;SDS011;35317;51.978;6.296;2022-09-14T23:58:18;55.50;;;27.35;;
